Terminal Aerodrome Forecast
Issued by NWS Missoula, MT

Home | Current Version | Previous Version | Text Only | Print | Product List | Glossary On
Versions: 1 2 3 4 5 6 7 8 9 10 11 12 13
000
FTUS45 KMSO 012320
TAFGPI
TAF
KGPI 012320Z 0200/0224 VRB02KT P6SM SCT100
     FM021100 02005KT P6SM OVC050
     FM021500 03013KT P6SM VCSH OVC050
     FM021700 03018KT 1 1/2SM -SN OVC025=

USA.gov is the U.S. government's official web portal to all federal, state and local government web resources and services.